createdAt,value
2019-04-05T00:00:44.715Z,14.77
2019-04-05T00:03:12.143Z,15.70
2019-04-05T00:05:39.472Z,15.80
2019-04-05T00:08:06.801Z,16.17
2019-04-05T00:10:34.179Z,15.50
2019-04-05T00:13:01.580Z,15.47
2019-04-05T00:15:28.859Z,15.03
2019-04-05T00:17:56.176Z,15.10
2019-04-05T00:20:23.517Z,16.17
2019-04-05T00:22:50.891Z,14.90
2019-04-05T00:25:18.238Z,14.47
2019-04-05T00:27:45.604Z,15.40
2019-04-05T00:30:12.959Z,14.80
2019-04-05T00:32:40.253Z,15.70
2019-04-05T00:35:07.584Z,15.10
2019-04-05T00:37:34.947Z,15.33
2019-04-05T00:40:02.489Z,15.40
2019-04-05T00:42:29.832Z,15.03
2019-04-05T00:44:57.139Z,15.90
2019-04-05T00:47:24.478Z,15.27
2019-04-05T00:49:51.786Z,15.20
2019-04-05T00:52:19.127Z,16.43
2019-04-05T00:54:46.786Z,15.20
2019-04-05T00:57:14.136Z,16.20
2019-04-05T00:59:41.530Z,15.77
2019-04-05T01:02:08.876Z,16.40
2019-04-05T01:04:36.227Z,15.60
2019-04-05T01:07:03.657Z,16.17
2019-04-05T01:09:31.019Z,16.70
2019-04-05T01:11:58.378Z,16.23
2019-04-05T01:14:25.725Z,16.63
2019-04-05T01:16:53.136Z,16.10
2019-04-05T01:19:20.467Z,16.43
2019-04-05T01:21:47.814Z,15.97
2019-04-05T01:24:15.138Z,15.40
2019-04-05T01:26:42.911Z,15.23
2019-04-05T01:29:10.231Z,15.50
2019-04-05T01:31:37.597Z,15.43
2019-04-05T01:34:05.629Z,16.00
2019-04-05T01:36:33.078Z,16.13
2019-04-05T01:39:00.466Z,15.63
2019-04-05T01:41:27.894Z,15.80
2019-04-05T01:43:55.210Z,14.67
2019-04-05T01:46:22.551Z,15.20
2019-04-05T01:48:49.984Z,14.80
2019-04-05T01:51:17.348Z,14.37
2019-04-05T01:53:44.773Z,14.20
2019-04-05T01:56:12.085Z,14.97
2019-04-05T01:58:39.438Z,13.90
2019-04-05T02:01:06.820Z,14.00
2019-04-05T02:03:34.158Z,15.77
2019-04-05T02:06:01.473Z,13.37
2019-04-05T02:08:28.897Z,14.73
2019-04-05T02:10:56.334Z,14.40
2019-04-05T02:13:23.728Z,13.70
2019-04-05T02:15:51.073Z,14.57
2019-04-05T02:18:18.483Z,14.20
2019-04-05T02:20:45.806Z,14.17
2019-04-05T02:23:13.522Z,15.40
2019-04-05T02:25:40.887Z,14.27
2019-04-05T02:28:08.236Z,14.70
2019-04-05T02:30:35.565Z,13.83
2019-04-05T02:33:02.896Z,13.97
2019-04-05T02:35:30.247Z,13.87
2019-04-05T02:37:57.643Z,13.90
2019-04-05T02:40:25.200Z,14.40
2019-04-05T02:42:52.671Z,14.07
2019-04-05T02:45:20.029Z,14.20
2019-04-05T02:47:54.946Z,14.07
2019-04-05T02:50:22.824Z,14.20
2019-04-05T02:52:50.149Z,13.93
2019-04-05T02:55:17.597Z,15.13
2019-04-05T02:57:45.016Z,13.50
2019-04-05T03:00:12.316Z,13.90
2019-04-05T03:02:39.659Z,14.27
2019-04-05T03:05:07.350Z,14.57
2019-04-05T03:07:34.710Z,14.40
2019-04-05T03:10:02.071Z,13.87
2019-04-05T03:12:29.431Z,13.87
2019-04-05T03:14:56.851Z,13.17
2019-04-05T03:17:24.181Z,13.73
2019-04-05T03:19:52.005Z,14.53
2019-04-05T03:22:19.321Z,15.40
2019-04-05T03:24:47.040Z,15.30
2019-04-05T03:27:15.053Z,13.87
2019-04-05T03:29:42.558Z,13.27
2019-04-05T03:32:10.246Z,15.67
2019-04-05T03:34:37.593Z,15.37
2019-04-05T03:37:04.912Z,15.70
2019-04-05T03:39:32.319Z,14.80
2019-04-05T03:41:59.753Z,15.97
2019-04-05T03:44:27.079Z,14.93
2019-04-05T03:46:56.944Z,15.20
2019-04-05T03:49:23.412Z,15.90
2019-04-05T03:51:50.797Z,14.60
2019-04-05T03:54:18.150Z,16.07
2019-04-05T03:56:45.502Z,15.73
2019-04-05T03:59:12.892Z,14.83
2019-04-05T04:01:40.253Z,14.67
2019-04-05T04:04:07.602Z,15.80
2019-04-05T04:06:35.019Z,16.13
2019-04-05T04:09:02.543Z,16.03
2019-04-05T04:11:29.956Z,15.13
2019-04-05T04:13:57.263Z,14.60
2019-04-05T04:16:24.612Z,14.33
2019-04-05T04:18:52.008Z,14.27
2019-04-05T04:21:24.183Z,14.30
2019-04-05T04:23:51.501Z,14.37
2019-04-05T04:26:19.626Z,14.80
2019-04-05T04:28:47.230Z,14.97
2019-04-05T04:31:14.785Z,14.93
2019-04-05T04:33:42.213Z,13.80
2019-04-05T04:36:12.837Z,15.37
2019-04-05T04:38:39.203Z,15.20
2019-04-05T04:41:06.544Z,14.47
2019-04-05T04:43:33.861Z,14.53
2019-04-05T04:46:01.201Z,13.20
2019-04-05T04:48:28.606Z,14.30
2019-04-05T04:50:56.012Z,14.00
2019-04-05T04:53:23.367Z,14.30
2019-04-05T04:55:50.817Z,14.00
2019-04-05T04:58:18.158Z,13.23
2019-04-05T05:00:45.497Z,12.80
2019-04-05T05:03:12.848Z,12.30
2019-04-05T05:05:40.203Z,12.83
2019-04-05T05:08:07.545Z,12.80
2019-04-05T05:10:34.917Z,13.67
2019-04-05T05:13:02.347Z,12.20
2019-04-05T05:15:29.664Z,13.83
2019-04-05T05:17:58.714Z,11.93
2019-04-05T05:20:26.070Z,13.07
2019-04-05T05:22:53.503Z,12.70
2019-04-05T05:25:20.855Z,12.53
2019-04-05T05:27:49.420Z,13.53
2019-04-05T05:30:16.733Z,12.47
2019-04-05T05:32:44.087Z,13.67
2019-04-05T05:35:11.475Z,13.67
2019-04-05T05:37:38.911Z,12.33
2019-04-05T05:40:06.792Z,12.27
2019-04-05T05:42:34.139Z,13.13
2019-04-05T05:45:01.505Z,13.00
2019-04-05T05:47:28.878Z,13.10
2019-04-05T05:49:56.342Z,13.30
2019-04-05T05:52:23.832Z,12.90
2019-04-05T05:54:51.219Z,13.07
2019-04-05T05:57:18.574Z,12.47
2019-04-05T05:59:45.881Z,13.10
2019-04-05T06:02:13.386Z,12.97
2019-04-05T06:04:40.696Z,12.60
2019-04-05T06:07:08.087Z,13.10
2019-04-05T06:09:35.450Z,13.43
2019-04-05T06:12:02.801Z,11.83
2019-04-05T06:14:30.123Z,13.03
2019-04-05T06:16:57.476Z,14.27
2019-04-05T06:19:24.828Z,13.40
2019-04-05T06:21:52.255Z,13.77
2019-04-05T06:24:19.563Z,13.10
2019-04-05T06:26:46.938Z,13.23
2019-04-05T06:29:14.711Z,13.33
2019-04-05T06:31:42.087Z,13.50
2019-04-05T06:34:09.427Z,14.50
2019-04-05T06:36:36.749Z,13.37
2019-04-05T06:39:06.152Z,12.73
2019-04-05T06:41:33.550Z,13.00
2019-04-05T06:44:00.860Z,12.50
2019-04-05T06:46:28.214Z,11.97
2019-04-05T06:48:55.660Z,11.77
2019-04-05T06:51:23.060Z,12.97
2019-04-05T06:53:50.382Z,13.87
2019-04-05T06:56:17.738Z,13.23
2019-04-05T06:58:46.451Z,12.50
2019-04-05T07:01:14.227Z,13.13
2019-04-05T07:03:41.633Z,12.40
2019-04-05T07:06:08.995Z,11.70
2019-04-05T07:08:36.349Z,12.00
2019-04-05T07:11:03.820Z,12.10
2019-04-05T07:13:31.212Z,12.27
2019-04-05T07:15:58.546Z,12.53
2019-04-05T07:18:34.003Z,13.57
2019-04-05T07:20:57.729Z,12.97
2019-04-05T07:23:24.248Z,12.40
2019-04-05T07:25:51.666Z,12.93
2019-04-05T07:28:19.013Z,13.03
2019-04-05T07:30:46.467Z,13.27
2019-04-05T07:33:13.774Z,13.60
2019-04-05T07:35:41.099Z,12.13
2019-04-05T07:38:09.805Z,11.73
2019-04-05T07:40:37.269Z,11.87
2019-04-05T07:43:04.716Z,13.03
2019-04-05T07:45:32.095Z,12.10
2019-04-05T07:47:59.421Z,11.73
2019-04-05T07:50:26.792Z,12.33
2019-04-05T07:52:54.132Z,10.20
2019-04-05T07:55:21.500Z,11.20
2019-04-05T07:57:49.026Z,10.97
2019-04-05T08:00:17.999Z,13.93
2019-04-05T08:02:45.423Z,14.17
2019-04-05T08:05:12.828Z,14.37
2019-04-05T08:07:41.804Z,16.07
2019-04-05T08:10:09.308Z,12.83
2019-04-05T08:12:36.733Z,12.27
2019-04-05T08:15:07.157Z,12.47
2019-04-05T08:17:35.406Z,12.13
2019-04-05T08:20:02.832Z,11.43
2019-04-05T08:22:32.323Z,11.20
2019-04-05T08:24:59.135Z,10.27
2019-04-05T08:27:26.472Z,10.87
2019-04-05T08:29:53.793Z,9.60
2019-04-05T08:32:21.145Z,9.27
2019-04-05T08:34:48.477Z,9.03
2019-04-05T08:37:15.810Z,8.40
2019-04-05T08:39:43.140Z,7.90
2019-04-05T08:42:10.997Z,8.43
2019-04-05T08:44:38.480Z,8.93
2019-04-05T08:47:05.831Z,7.27
2019-04-05T08:49:33.149Z,7.63
2019-04-05T08:52:00.498Z,8.43
2019-04-05T08:54:33.120Z,7.53
2019-04-05T08:56:56.947Z,7.07
2019-04-05T08:59:24.260Z,7.43
2019-04-05T09:01:51.557Z,7.03
2019-04-05T09:04:18.952Z,7.80
2019-04-05T09:06:46.383Z,7.83
2019-04-05T09:09:13.693Z,7.10
2019-04-05T09:11:41.057Z,7.27
2019-04-05T09:14:08.379Z,7.27
2019-04-05T09:16:35.779Z,6.70
2019-04-05T09:19:03.113Z,7.33
2019-04-05T09:21:30.441Z,7.07
2019-04-05T09:23:59.318Z,7.20
2019-04-05T09:26:26.883Z,6.27
2019-04-05T09:28:54.243Z,5.58
2019-04-05T09:31:21.581Z,5.87
2019-04-05T09:33:49.340Z,5.80
2019-04-05T09:36:16.763Z,6.33
2019-04-05T09:38:44.167Z,6.40
2019-04-05T09:41:11.597Z,6.27
2019-04-05T09:43:39.056Z,5.80
2019-04-05T09:46:06.450Z,6.03
2019-04-05T09:48:33.870Z,6.57
2019-04-05T09:51:01.178Z,5.77
2019-04-05T09:53:28.492Z,6.60
2019-04-05T09:55:55.911Z,6.20
2019-04-05T09:58:23.169Z,6.60
2019-04-05T10:00:50.587Z,5.80
2019-04-05T10:03:18.438Z,5.77
2019-04-05T10:05:45.825Z,5.77
2019-04-05T10:08:13.384Z,5.87
2019-04-05T10:10:40.720Z,5.70
2019-04-05T10:13:09.750Z,5.87
2019-04-05T10:15:37.185Z,5.35
2019-04-05T10:18:04.500Z,5.83
2019-04-05T10:20:31.813Z,5.05
2019-04-05T10:22:59.164Z,5.20
2019-04-05T10:25:26.829Z,4.90
2019-04-05T10:27:54.155Z,4.92
2019-04-05T10:30:21.575Z,5.00
2019-04-05T10:32:48.935Z,4.58
2019-04-05T10:35:16.287Z,4.33
2019-04-05T10:37:43.626Z,4.45
2019-04-05T10:40:10.979Z,3.92
2019-04-05T10:42:38.303Z,4.80
2019-04-05T10:45:07.309Z,4.20
2019-04-05T10:47:34.649Z,4.40
2019-04-05T10:50:03.637Z,3.98
2019-04-05T10:52:31.067Z,4.87
2019-04-05T10:54:58.382Z,4.60
2019-04-05T10:57:25.774Z,5.50
2019-04-05T10:59:53.082Z,5.40
2019-04-05T11:02:20.443Z,5.17
2019-04-05T11:04:47.765Z,5.37
2019-04-05T11:07:15.511Z,5.53
2019-04-05T11:09:42.905Z,6.47
2019-04-05T11:12:10.333Z,5.35
2019-04-05T11:14:37.666Z,5.10
2019-04-05T11:17:05.175Z,5.65
2019-04-05T11:19:36.201Z,5.95
2019-04-05T11:22:01.782Z,5.20
2019-04-05T11:24:29.193Z,5.47
2019-04-05T11:26:56.493Z,5.78
2019-04-05T11:29:23.831Z,5.30
2019-04-05T11:31:57.048Z,5.60
2019-04-05T11:34:20.230Z,5.05
2019-04-05T11:36:47.574Z,5.25
2019-04-05T11:39:14.924Z,4.87
2019-04-05T11:41:42.323Z,5.12
2019-04-05T11:44:09.677Z,4.70
2019-04-05T11:46:36.980Z,4.42
2019-04-05T11:49:04.791Z,4.42
2019-04-05T11:51:32.175Z,4.62
2019-04-05T11:53:59.557Z,4.83
2019-04-05T11:56:26.899Z,4.70
2019-04-05T11:58:54.235Z,4.22
2019-04-05T12:01:23.602Z,4.25
2019-04-05T12:04:03.467Z,4.15
2019-04-05T12:06:30.848Z,4.58
2019-04-05T12:08:59.325Z,5.20
2019-04-05T12:11:27.311Z,5.20
2019-04-05T12:13:54.736Z,5.85
2019-04-05T12:16:22.610Z,5.05
2019-04-05T12:18:50.000Z,4.97
2019-04-05T12:21:17.316Z,6.15
2019-04-05T12:23:44.670Z,5.55
2019-04-05T12:26:11.979Z,5.22
2019-04-05T12:28:39.342Z,5.15
2019-04-05T12:31:06.729Z,4.70
2019-04-05T12:33:34.053Z,4.45
2019-04-05T12:36:01.462Z,4.10
2019-04-05T12:38:33.014Z,4.05
2019-04-05T12:41:01.274Z,4.40
2019-04-05T12:43:28.622Z,4.40
2019-04-05T12:45:55.995Z,4.28
2019-04-05T12:48:23.352Z,4.17
2019-04-05T12:51:00.605Z,4.20
2019-04-05T12:53:19.645Z,3.45
2019-04-05T12:55:47.054Z,3.90
2019-04-05T12:58:14.377Z,3.55
2019-04-05T13:00:41.773Z,3.60
2019-04-05T13:03:09.038Z,4.03
2019-04-05T13:05:36.405Z,3.58
2019-04-05T13:08:03.792Z,3.90
2019-04-05T13:10:31.099Z,4.22
2019-04-05T13:12:58.424Z,4.25
2019-04-05T13:15:26.029Z,3.98
2019-04-05T13:17:53.372Z,4.20
2019-04-05T13:20:20.759Z,4.53
2019-04-05T13:22:48.101Z,4.65
2019-04-05T13:25:15.426Z,3.90
2019-04-05T13:27:42.766Z,4.55
2019-04-05T13:30:10.096Z,4.22
2019-04-05T13:32:37.402Z,4.70
2019-04-05T13:35:05.410Z,5.12
2019-04-05T13:37:32.802Z,4.83
2019-04-05T13:40:00.538Z,5.50
2019-04-05T13:42:31.302Z,5.75
2019-04-05T13:44:57.118Z,4.92
2019-04-05T13:47:24.446Z,5.47
2019-04-05T13:49:51.793Z,5.62
2019-04-05T13:52:19.131Z,5.85
2019-04-05T13:54:46.670Z,5.58
2019-04-05T13:57:14.059Z,5.28
2019-04-05T13:59:41.368Z,5.78
2019-04-05T14:02:09.062Z,5.17
2019-04-05T14:04:36.412Z,5.37
2019-04-05T14:07:03.997Z,5.42
2019-04-05T14:09:31.723Z,4.95
2019-04-05T14:11:59.298Z,4.63
2019-04-05T14:14:28.369Z,5.05
2019-04-05T14:16:55.776Z,5.75
2019-04-05T14:19:23.105Z,5.30
2019-04-05T14:21:53.773Z,5.62
2019-04-05T14:24:21.469Z,5.42
2019-04-05T14:26:50.418Z,5.65
2019-04-05T14:29:17.865Z,4.70
2019-04-05T14:31:45.275Z,5.37
2019-04-05T14:34:12.596Z,6.08
2019-04-05T14:36:39.925Z,5.70
2019-04-05T14:39:09.720Z,5.85
2019-04-05T14:41:37.129Z,5.17
2019-04-05T14:44:04.498Z,3.77
2019-04-05T14:46:31.841Z,4.20
2019-04-05T14:49:00.728Z,5.25
2019-04-05T14:51:28.702Z,4.58
2019-04-05T14:53:56.737Z,4.58
2019-04-05T14:56:24.077Z,4.58
2019-04-05T14:58:51.491Z,6.78
2019-04-05T15:01:19.043Z,7.62
2019-04-05T15:03:46.453Z,7.50
2019-04-05T15:06:13.832Z,7.20
2019-04-05T15:08:41.154Z,7.33
2019-04-05T15:11:10.904Z,6.58
2019-04-05T15:13:37.577Z,7.25
2019-04-05T15:16:04.985Z,6.97
2019-04-05T15:18:32.355Z,7.47
2019-04-05T15:20:59.629Z,6.58
2019-04-05T15:23:26.975Z,6.50
2019-04-05T15:25:55.127Z,7.25
2019-04-05T15:28:24.586Z,6.90
2019-04-05T15:30:55.670Z,6.05
2019-04-05T15:33:20.733Z,6.53
2019-04-05T15:35:48.244Z,5.97
2019-04-05T15:38:15.665Z,6.37
2019-04-05T15:40:43.281Z,6.45
2019-04-05T15:43:10.861Z,6.03
2019-04-05T15:45:38.735Z,6.85
2019-04-05T15:48:07.605Z,6.70
2019-04-05T15:50:35.132Z,6.85
2019-04-05T15:53:02.966Z,6.60
2019-04-05T15:55:33.417Z,6.55
2019-04-05T15:58:01.436Z,6.83
2019-04-05T16:00:44.271Z,7.00
2019-04-05T16:03:12.067Z,7.37
2019-04-05T16:05:39.637Z,7.65
2019-04-05T16:08:07.035Z,7.58
2019-04-05T16:10:34.484Z,7.40
2019-04-05T16:13:01.761Z,7.00
2019-04-05T16:15:29.279Z,7.17
2019-04-05T16:17:56.680Z,7.47
2019-04-05T16:20:24.456Z,8.10
2019-04-05T16:22:51.870Z,6.92
2019-04-05T16:25:19.333Z,8.10
2019-04-05T16:27:46.769Z,8.58
2019-04-05T16:30:14.156Z,8.80
2019-04-05T16:32:41.683Z,9.28
2019-04-05T16:35:09.152Z,9.50
2019-04-05T16:37:36.477Z,10.45
2019-04-05T16:40:05.376Z,8.40
2019-04-05T16:42:32.807Z,10.93
2019-04-05T16:45:00.122Z,10.35
2019-04-05T16:47:27.544Z,12.53
2019-04-05T16:49:55.062Z,9.93
2019-04-05T16:52:22.530Z,9.13
2019-04-05T16:54:49.913Z,8.37
2019-04-05T16:57:17.361Z,7.13
2019-04-05T16:59:44.735Z,7.50
2019-04-05T17:02:12.299Z,8.50
2019-04-05T17:04:39.679Z,7.80
2019-04-05T17:07:07.098Z,8.60
2019-04-05T17:09:34.596Z,9.13
2019-04-05T17:12:01.963Z,9.40
2019-04-05T17:14:29.285Z,9.60
2019-04-05T17:16:56.856Z,11.27
2019-04-05T17:19:24.190Z,13.13
2019-04-05T17:21:51.576Z,10.53
2019-04-05T17:24:18.926Z,9.90
2019-04-05T17:26:46.284Z,10.37
2019-04-05T17:29:13.611Z,11.17
2019-04-05T17:31:41.022Z,11.40
2019-04-05T17:34:08.326Z,12.07
2019-04-05T17:36:35.753Z,10.73
2019-04-05T17:39:04.408Z,10.03
2019-04-05T17:41:31.824Z,10.50
2019-04-05T17:43:59.277Z,12.07
2019-04-05T17:46:26.618Z,12.70
2019-04-05T17:48:54.079Z,11.57
2019-04-05T17:51:21.364Z,12.50
2019-04-05T17:53:48.783Z,12.17
2019-04-05T17:56:16.118Z,13.40
2019-04-05T17:58:43.508Z,14.33
2019-04-05T18:01:10.952Z,14.23
2019-04-05T18:03:38.443Z,13.77
2019-04-05T18:06:05.832Z,14.63
2019-04-05T18:08:33.310Z,16.60
2019-04-05T18:11:00.830Z,17.80
2019-04-05T18:13:28.275Z,18.37
2019-04-05T18:15:55.601Z,18.30
2019-04-05T18:18:23.149Z,19.00
2019-04-05T18:20:50.510Z,17.63
2019-04-05T18:23:24.858Z,16.27
2019-04-05T18:25:46.931Z,16.60
2019-04-05T18:28:14.405Z,15.60
2019-04-05T18:30:41.820Z,17.30
2019-04-05T18:33:09.209Z,19.03
2019-04-05T18:35:36.626Z,19.63
2019-04-05T18:38:04.037Z,25.67
2019-04-05T18:40:39.855Z,24.53
2019-04-05T18:43:00.457Z,24.53
2019-04-05T18:45:27.998Z,25.00
2019-04-05T18:47:55.416Z,27.90
2019-04-05T18:50:22.815Z,27.97
2019-04-05T18:52:50.196Z,30.50
2019-04-05T18:55:17.773Z,29.80
2019-04-05T18:57:45.185Z,31.37
2019-04-05T19:00:12.681Z,30.40
2019-04-05T19:02:40.101Z,29.27
2019-04-05T19:05:07.804Z,29.70
2019-04-05T19:07:35.187Z,26.67
2019-04-05T19:10:02.608Z,24.67
2019-04-05T19:12:31.663Z,22.93
2019-04-05T19:14:59.070Z,22.37
2019-04-05T19:17:26.386Z,22.97
2019-04-05T19:19:53.898Z,22.00
2019-04-05T19:22:21.164Z,22.53
2019-04-05T19:24:48.603Z,22.17
2019-04-05T19:27:16.076Z,20.97
2019-04-05T19:29:43.433Z,21.67
2019-04-05T19:49:34.308Z,20.90
2019-04-05T19:52:01.697Z,19.83
2019-04-05T19:54:29.053Z,21.27
2019-04-05T19:56:56.477Z,19.83
2019-04-05T19:59:23.755Z,20.83
2019-04-05T20:01:51.176Z,21.73
2019-04-05T20:04:18.924Z,21.90
2019-04-05T20:06:46.243Z,21.33
2019-04-05T20:09:13.815Z,21.40
2019-04-05T20:11:41.221Z,21.27
2019-04-05T20:14:08.694Z,21.50
2019-04-05T20:16:36.150Z,22.47
2019-04-05T20:19:03.533Z,21.40
2019-04-05T20:21:31.027Z,24.20
2019-04-05T20:23:58.363Z,24.13
2019-04-05T20:26:25.903Z,22.57
2019-04-05T20:28:53.333Z,24.07
2019-04-05T20:31:20.878Z,23.50
2019-04-05T20:33:48.318Z,25.43
2019-04-05T20:36:15.738Z,25.80
2019-04-05T20:38:43.077Z,25.60
2019-04-05T20:41:10.457Z,26.00
2019-04-05T20:43:37.917Z,24.83
2019-04-05T20:46:05.383Z,24.63
2019-04-05T20:48:32.752Z,24.30
2019-04-05T20:51:00.162Z,22.27
2019-04-05T20:53:27.502Z,21.80
2019-04-05T20:55:54.817Z,24.27
2019-04-05T20:58:22.178Z,24.47
2019-04-05T21:00:49.557Z,24.70
2019-04-05T21:03:17.289Z,25.63
2019-04-05T21:05:44.651Z,27.60
2019-04-05T21:08:12.071Z,27.17
2019-04-05T21:10:39.480Z,26.63
2019-04-05T21:13:06.919Z,27.50
2019-04-05T21:15:34.337Z,30.93
2019-04-05T21:18:01.835Z,30.73
2019-04-05T21:20:29.229Z,31.17
2019-04-05T21:22:56.636Z,28.97
2019-04-05T21:25:24.064Z,29.03
2019-04-05T21:27:51.441Z,28.30
2019-04-05T21:30:18.831Z,27.07
2019-04-05T21:32:46.341Z,25.97
2019-04-05T21:35:13.663Z,27.10
2019-04-05T21:37:41.096Z,24.93
2019-04-05T21:40:08.527Z,24.87
2019-04-05T21:42:35.929Z,24.43
2019-04-05T21:45:03.589Z,25.53
2019-04-05T21:47:30.993Z,24.97
2019-04-05T21:49:58.423Z,24.60
2019-04-05T21:52:25.859Z,25.33
2019-04-05T21:54:53.171Z,23.13
2019-04-05T21:57:20.557Z,24.87
2019-04-05T21:59:47.952Z,24.00
2019-04-05T22:02:15.295Z,23.83
2019-04-05T22:04:42.651Z,23.07
2019-04-05T22:07:10.248Z,23.77
2019-04-05T22:09:37.617Z,21.40
2019-04-05T22:12:05.029Z,20.63
2019-04-05T22:14:32.384Z,20.47
2019-04-05T22:16:59.739Z,21.63
2019-04-05T22:19:27.108Z,20.17
2019-04-05T22:21:54.513Z,21.03
2019-04-05T22:24:21.966Z,20.10
2019-04-05T22:26:49.332Z,20.57
2019-04-05T22:29:16.747Z,21.57
2019-04-05T22:31:44.211Z,20.40
2019-04-05T22:34:11.625Z,20.57
2019-04-05T22:36:38.969Z,19.47
2019-04-05T22:39:06.641Z,20.90
2019-04-05T22:41:33.980Z,20.63
2019-04-05T22:44:01.400Z,20.97
2019-04-05T22:46:28.799Z,21.43
2019-04-05T22:48:56.199Z,20.93
2019-04-05T22:51:23.522Z,21.90
2019-04-05T22:53:50.934Z,20.33
2019-04-05T22:56:18.381Z,20.87
2019-04-05T22:58:45.779Z,20.70
2019-04-05T23:01:13.183Z,21.10
2019-04-05T23:03:40.636Z,21.07
2019-04-05T23:06:07.958Z,22.40
2019-04-05T23:08:35.373Z,21.57
2019-04-05T23:11:03.085Z,21.73
2019-04-05T23:13:30.512Z,22.97
2019-04-05T23:15:57.864Z,21.27
2019-04-05T23:18:25.295Z,22.27
2019-04-05T23:20:52.700Z,22.70
2019-04-05T23:23:20.026Z,23.07
2019-04-05T23:25:47.410Z,22.50
2019-04-05T23:28:14.873Z,21.20
2019-04-05T23:30:42.304Z,22.10
2019-04-05T23:33:09.651Z,22.90
2019-04-05T23:35:36.992Z,22.33
2019-04-05T23:38:04.399Z,21.70
2019-04-05T23:40:31.820Z,22.90
2019-04-05T23:42:59.145Z,22.83
2019-04-05T23:45:26.518Z,21.17
2019-04-05T23:47:53.858Z,21.20
2019-04-05T23:50:21.523Z,21.50
2019-04-05T23:52:49.289Z,21.47
2019-04-05T23:55:16.683Z,21.93
2019-04-05T23:57:44.056Z,21.60
